x

La Have Bank (44150) Wave Buoy

10:00pm - Wed 20th Aug 2014 All times are ADT. -3 hours from GMT.

  • Sig Wave height 1.6ft
  • Peak Period 10s
  • Wind
    4mph, 7mph gusts
  • Sea Temp 68°f
  • Air Temp 66°f
  • Sea Pressure 1018.1mb
  • La Have Bank
  • La Have Bank

More Historic Weather Station data

Upgrade to MSW Pro to gain access to the past 30 days of data for over 8000 Wavebouys and Weather Stations around the globe.

Join Pro

Comparision Forecast

View Surf forecast
   
Wed 08/20 10:00pm 1.6ft 10s 4 7 mph 1018.1mb 68f 66f
9:00pm 1.6ft 6s 4 7 mph 1017.9mb 68f 66f
8:00pm 1.6ft 7s 4 7 mph 1017.3mb 68f 66f
7:00pm 1.6ft 8s 7 9 mph 1017.3mb 68f 67f
6:00pm 1.6ft 8s 7
mph
1017.1mb 68f 67f
5:00pm 1.6ft 7s 7
mph
1017.1mb 69f 67f
4:00pm 1.6ft 8s 4 7 mph 1016.9mb 68f 67f
3:00pm 2ft 7s 7
mph
1017.1mb 68f 66f
2:00pm 2ft 6s 7
mph
1017.4mb 68f 66f
1:00pm 2ft 6s 7
mph
1017.7mb 67f 66f
12:00pm 2.5ft 7s 4 7 mph 1017.6mb 67f 65f
11:00am 2.5ft 7s 7 9 mph 1017.4mb 67f 65f
10:00am 2ft 7s 7
mph
1017mb 67f 65f
9:00am 2.5ft 6s 7 9 mph 1016.8mb 66f 65f
8:00am 2.5ft 7s 9 11 mph 1016.5mb 66f 64f
7:00am 2.5ft 6s 9 11 mph 1015.9mb 66f 64f
6:00am 2.5ft 7s 11 13 mph 1015.5mb 66f 64f
5:00am 2ft 8s 13 16 mph 1015.3mb 66f 64f
4:00am 2.5ft  -  13 18 mph 1015.3mb 66f 64f
3:00am 2.5ft 4s 13 16 mph 1015mb 66f 64f
2:00am 3ft 4s 13 18 mph 1014.9mb 66f 64f
1:00am 3.5ft  -  16 18 mph 1015mb 66f 64f
12:00am 3.5ft 5s 16 18 mph 1014.9mb 66f 64f
Tue 08/19 11:00pm 3.5ft 5s 16 18 mph 1014.5mb 67f 64f
10:00pm 3.5ft 5s 16 18 mph 1014.4mb 67f 64f
9:00pm 3.5ft 5s 16 18 mph 1014mb 67f 64f
8:00pm 3.5ft 5s 16 18 mph 1013.3mb 67f 64f
7:00pm 3.5ft 6s 16 20 mph 1013mb 67f 64f
6:00pm 3ft 6s 18 20 mph 1012.7mb 67f 64f
5:00pm 3ft 6s 18 20 mph 1012.2mb 67f 63f
4:00pm 3ft 6s 16 18 mph 1012.2mb 67f 63f
3:00pm 3.5ft  -  18 20 mph 1012mb 67f 63f
2:00pm 3ft  -  18 20 mph 1012.1mb 67f 63f
1:00pm 3.5ft 6s 18 20 mph 1011.9mb 67f 63f
12:00pm 3.5ft 6s 18 20 mph 1011.8mb 67f 63f
11:00am 4ft 5s 16 18 mph 1011.5mb 67f 63f
10:00am 4.5ft 5s 16 18 mph 1010.8mb 66f 63f
9:00am 4ft 5s 16 18 mph 1010.3mb 66f 64f
8:00am 4ft 5s 16 18 mph 1009.8mb 66f 64f
7:00am 3.5ft 5s 16 20 mph 1009.3mb 66f 63f
6:00am 4ft 5s 16 20 mph 1008.7mb 66f 64f
5:00am 4ft 5s 18 22 mph 1008.1mb 67f 64f
4:00am 4ft 5s 18 20 mph 1007.8mb 66f 63f
3:00am 4.5ft 5s 20 22 mph 1007.7mb 66f 63f
2:00am 4.5ft 5s 22 25 mph 1007.9mb 66f 63f
1:00am 4.5ft 5s 20 25 mph 1008mb 66f 63f
12:00am 5ft 5s 20 25 mph 1007.9mb 66f 63f
Mon 08/18 11:00pm 5ft 5s 20 25 mph 1007.7mb 66f 63f
10:00pm 5ft 5s 22 25 mph 1007.6mb 66f 62f
9:00pm 4.5ft 5s 20 25 mph 1007mb 66f 63f
8:00pm 4.5ft 6s 22 27 mph 1006.2mb 67f 63f
7:00pm 4.5ft 6s 20 25 mph 1005.8mb 67f 63f
6:00pm 4ft 6s 20 25 mph 1005.6mb 67f 64f
5:00pm 3.5ft 7s 22 25 mph 1005.6mb 66f 63f
4:00pm 3.5ft 7s 20 22 mph 1005.6mb 66f 63f
3:00pm 3.5ft 7s 18 22 mph 1005.5mb 66f 62f
2:00pm 3.5ft 6s 20 22 mph 1005.6mb 66f 62f
1:00pm 3.5ft 8s 18 20 mph 1005.6mb 66f 62f
12:00pm 4.5ft 7s 16 18 mph 1005.8mb 66f 63f
11:00am 4.5ft 6s 13 18 mph 1005.9mb 66f 64f
10:00am 4.5ft 6s 13 16 mph 1005.8mb 66f 64f
9:00am 5ft 6s 11 13 mph 1005.8mb 66f 64f
8:00am 5ft 6s 11 13 mph 1005.6mb 66f 64f
7:00am 4.5ft 7s 13 16 mph 1005.5mb 66f 64f
6:00am 4.5ft 7s 13 16 mph 1005.3mb 67f 64f
5:00am 4ft 7s 13 16 mph 1005.3mb 67f 65f
4:00am 4ft 8s 11 13 mph 1005.8mb 67f 65f
3:00am 4ft 7s 9 11 mph 1006.1mb 66f 64f
2:00am 4ft 8s 13 16 mph 1006.5mb 66f 64f
1:00am 4.5ft 8s 16 18 mph 1007.1mb 67f 65f
12:00am 5ft 7s 13 16 mph 1007.3mb 67f 64f
Sun 08/17 11:00pm 5ft 7s 18 20 mph 1007.5mb 67f 64f
10:00pm 5.5ft 7s 16 18 mph 1008.4mb 67f 65f
9:00pm 5.5ft 6s 13 18 mph 1008.5mb 67f 66f
8:00pm 5ft 6s 13 16 mph 1008.1mb 67f 67f
7:00pm 4ft 9s 13 16 mph 1008.3mb 67f 68f
6:00pm 3.5ft 9s 16 18 mph 1008.5mb 66f 69f
5:00pm 3.5ft 10s 16 18 mph 1009.1mb 66f 68f
3:00pm 3.5ft 9s 22 27 mph 1010.8mb 66f 65f
1:00pm 3ft 9s 13 18 mph 1013.3mb 66f 64f
12:00pm 3.5ft 9s 16 20 mph 1014.2mb 67f 65f
11:00am 3.5ft 8s 18 22 mph 1014.5mb 67f 65f
10:00am 3.5ft 9s 13 18 mph 1014.9mb 66f 67f
9:00am 4ft 8s 13
mph
1014.8mb 66f 67f
8:00am 4.5ft 8s 13 16 mph 1015.3mb 66f 67f
7:00am 4ft 7s 13
mph
1015.2mb 66f 67f
6:00am 4ft 6s 11 13 mph 1015.2mb 66f 66f
5:00am 3.5ft 9s 11 13 mph 1015.4mb 66f 66f
4:00am 3.5ft 8s 11 13 mph 1015.7mb 66f 66f
3:00am 3.5ft 8s 13
mph
1015.9mb 66f 66f